Time;durP1;ratioP1;P1;durP2;ratioP2;P2;SDS_P1;SDS_P2;PMS_P1;PMS_P2;Temp;Humidity;BMP_temperature;BMP_pressure;BME280_temperature;BME280_humidity;BME280_pressure;Samples;Min_cycle;Max_cycle;Signal;HPM_P1;HPM_P2
2022/11/05 00:17:35;;;;;;;7.07;4.35;;;;;;;;;;5032158;28;20072;-70
2022/11/05 00:20:02;;;;;;;7.18;4.28;;;;;;;;;;5031474;28;20049;-70
2022/11/05 00:25:17;;;;;;;6.72;4.05;;;;;;;;;;5031623;28;20053;-70
2022/11/05 00:27:51;;;;;;;7.07;4.45;;;;;;;;;;5031614;28;20077;-71
2022/11/05 00:30:22;;;;;;;6.93;4.10;;;;;;;;;;5031900;28;20045;-70
2022/11/05 00:32:50;;;;;;;8.13;4.60;;;;;;;;;;5031858;28;20096;-70
2022/11/05 00:35:18;;;;;;;7.95;4.22;;;;;;;;;;5031799;28;20471;-70
2022/11/05 00:37:45;;;;;;;6.18;3.80;;;;;;;;;;5031326;28;20578;-71
2022/11/05 00:40:16;;;;;;;7.05;4.25;;;;;;;;;;5031510;28;20415;-71
2022/11/05 00:45:29;;;;;;;4.45;3.30;;;;;;;;;;5031800;28;20041;-70
2022/11/05 00:50:40;;;;;;;4.35;2.88;;;;;;;;;;5031586;28;20100;-70
2022/11/05 00:53:07;;;;;;;5.97;3.60;;;;;;;;;;5031699;28;20128;-70
2022/11/05 00:55:36;;;;;;;5.70;3.42;;;;;;;;;;5031459;28;20077;-70
2022/11/05 00:58:08;;;;;;;5.32;3.15;;;;;;;;;;5031350;28;20099;-70
2022/11/05 01:00:36;;;;;;;5.05;3.33;;;;;;;;;;5031715;28;20053;-70
2022/11/05 01:03:08;;;;;;;5.15;3.50;;;;;;;;;;5031746;28;20049;-71
2022/11/05 01:05:41;;;;;;;4.13;3.28;;;;;;;;;;5031546;28;20049;-70
2022/11/05 01:08:09;;;;;;;4.25;2.90;;;;;;;;;;5031166;28;20080;-69
2022/11/05 01:10:43;;;;;;;4.35;2.90;;;;;;;;;;5031335;28;20095;-69
2022/11/05 01:13:10;;;;;;;3.78;2.83;;;;;;;;;;5031561;28;20081;-70
2022/11/05 01:15:39;;;;;;;4.07;2.78;;;;;;;;;;5030233;28;20046;-70
2022/11/05 01:18:05;;;;;;;4.10;3.03;;;;;;;;;;5029999;28;20416;-69
2022/11/05 01:20:32;;;;;;;5.57;3.30;;;;;;;;;;5031400;28;20049;-70
2022/11/05 01:22:59;;;;;;;6.18;3.60;;;;;;;;;;5032177;28;20076;-70
2022/11/05 01:25:25;;;;;;;5.47;3.65;;;;;;;;;;5034532;28;20046;-70
2022/11/05 01:27:52;;;;;;;6.50;3.33;;;;;;;;;;5034685;28;20493;-70
2022/11/05 01:30:18;;;;;;;3.70;2.78;;;;;;;;;;5034586;28;20049;-70
2022/11/05 01:32:45;;;;;;;5.30;3.10;;;;;;;;;;5034765;28;20393;-70
2022/11/05 01:35:14;;;;;;;5.28;3.40;;;;;;;;;;5034769;28;20152;-70
2022/11/05 01:37:40;;;;;;;5.93;2.80;;;;;;;;;;5034788;28;20081;-70
2022/11/05 01:40:15;;;;;;;4.38;2.88;;;;;;;;;;5034208;28;20058;-70
2022/11/05 01:42:41;;;;;;;6.47;2.90;;;;;;;;;;5033437;28;20049;-70
2022/11/05 01:45:14;;;;;;;3.70;3.40;;;;;;;;;;5035931;28;20483;-70
2022/11/05 01:48:10;;;;;;;2.85;2.63;;;;;;;;;;5034527;28;20092;-69
2022/11/05 01:50:40;;;;;;;6.38;3.47;;;;;;;;;;5033455;28;20555;-70
2022/11/05 01:53:09;;;;;;;3.47;2.75;;;;;;;;;;5033028;28;20085;-70
2022/11/05 01:55:39;;;;;;;3.70;2.90;;;;;;;;;;5033584;28;20064;-70
2022/11/05 01:58:06;;;;;;;5.05;3.05;;;;;;;;;;5016774;28;20077;-70
2022/11/05 02:00:33;;;;;;;4.03;2.50;;;;;;;;;;5034495;28;20350;-70
2022/11/05 02:03:00;;;;;;;4.47;2.70;;;;;;;;;;5033997;28;20531;-70
2022/11/05 02:05:27;;;;;;;3.90;2.70;;;;;;;;;;5034054;28;20061;-70
2022/11/05 02:07:53;;;;;;;3.58;2.70;;;;;;;;;;5032422;28;20085;-70
2022/11/05 02:10:20;;;;;;;5.55;2.60;;;;;;;;;;5033918;28;20049;-69
2022/11/05 02:12:47;;;;;;;3.88;2.63;;;;;;;;;;5033797;28;20053;-70
2022/11/05 02:15:42;;;;;;;3.67;2.42;;;;;;;;;;5033832;28;20084;-70
2022/11/05 02:18:35;;;;;;;2.75;2.40;;;;;;;;;;5032293;28;20053;-70
2022/11/05 02:21:29;;;;;;;5.18;2.90;;;;;;;;;;5012303;28;20053;-70
2022/11/05 02:24:18;;;;;;;4.78;2.75;;;;;;;;;;5032384;28;20120;-70
2022/11/05 02:27:08;;;;;;;6.47;2.90;;;;;;;;;;5032900;28;20089;-70
2022/11/05 02:29:59;;;;;;;3.60;2.58;;;;;;;;;;5031666;28;20084;-70
2022/11/05 02:32:34;;;;;;;3.92;3.22;;;;;;;;;;5032535;28;20535;-71
2022/11/05 02:35:20;;;;;;;3.42;2.90;;;;;;;;;;5031416;28;20049;-70
2022/11/05 02:37:52;;;;;;;5.15;2.78;;;;;;;;;;5033394;28;20050;-70
2022/11/05 02:40:27;;;;;;;5.63;3.10;;;;;;;;;;5016120;28;20095;-70
2022/11/05 02:43:00;;;;;;;3.63;2.78;;;;;;;;;;5033729;28;20056;-70
2022/11/05 02:45:47;;;;;;;3.90;2.78;;;;;;;;;;5032564;28;20159;-71
2022/11/05 02:48:25;;;;;;;3.95;2.67;;;;;;;;;;5032934;28;20049;-70
2022/11/05 02:51:14;;;;;;;4.60;2.72;;;;;;;;;;5016369;28;20575;-70
2022/11/05 02:53:52;;;;;;;3.22;2.60;;;;;;;;;;5017583;28;20123;-71
2022/11/05 02:56:33;;;;;;;4.88;2.72;;;;;;;;;;5016230;28;20104;-70
2022/11/05 02:59:00;;;;;;;5.65;2.88;;;;;;;;;;5031867;28;20054;-70
2022/11/05 03:01:26;;;;;;;3.25;2.88;;;;;;;;;;5033117;28;20179;-70
2022/11/05 03:03:56;;;;;;;5.07;3.05;;;;;;;;;;5032890;28;20100;-70
2022/11/05 03:06:50;;;;;;;2.85;2.60;;;;;;;;;;5015827;28;20077;-70
2022/11/05 03:09:28;;;;;;;4.45;2.83;;;;;;;;;;5031454;28;20500;-70
2022/11/05 03:12:14;;;;;;;4.13;3.08;;;;;;;;;;5032837;28;20103;-70
2022/11/05 03:15:06;;;;;;;4.10;3.42;;;;;;;;;;5033094;28;20049;-70
2022/11/05 03:17:37;;;;;;;3.88;2.95;;;;;;;;;;5031974;28;20045;-70
2022/11/05 03:20:14;;;;;;;3.60;3.30;;;;;;;;;;5014949;28;20084;-70
2022/11/05 03:22:50;;;;;;;6.30;3.80;;;;;;;;;;5032630;28;20111;-70
2022/11/05 03:25:20;;;;;;;6.13;3.60;;;;;;;;;;5031684;28;20591;-70
2022/11/05 03:27:47;;;;;;;4.90;3.88;;;;;;;;;;5031110;28;20076;-70
2022/11/05 03:30:15;;;;;;;4.85;4.22;;;;;;;;;;5027507;28;20085;-70
2022/11/05 03:32:45;;;;;;;7.15;4.10;;;;;;;;;;5012028;28;20085;-70
2022/11/05 03:35:26;;;;;;;7.25;4.38;;;;;;;;;;5031118;28;20080;-70
2022/11/05 03:37:56;;;;;;;4.70;4.07;;;;;;;;;;5031913;28;20513;-70
2022/11/05 03:40:23;;;;;;;4.63;4.22;;;;;;;;;;5014778;28;20163;-70
2022/11/05 03:42:51;;;;;;;6.28;4.60;;;;;;;;;;5031506;28;20099;-70
2022/11/05 03:45:20;;;;;;;5.05;4.55;;;;;;;;;;5014755;28;20053;-70
2022/11/05 03:47:47;;;;;;;5.30;4.28;;;;;;;;;;5030875;28;20049;-70
2022/11/05 03:50:40;;;;;;;5.25;4.35;;;;;;;;;;5031079;28;20485;-70
2022/11/05 03:53:16;;;;;;;5.50;4.20;;;;;;;;;;5029362;28;20076;-70
2022/11/05 03:56:17;;;;;;;5.78;5.03;;;;;;;;;;5030997;28;20570;-70
2022/11/05 03:58:43;;;;;;;6.53;5.35;;;;;;;;;;5030883;28;20136;-70
2022/11/05 04:01:11;;;;;;;6.55;4.50;;;;;;;;;;5031185;28;20464;-70
2022/11/05 04:03:37;;;;;;;6.28;5.10;;;;;;;;;;5031727;28;20059;-71
2022/11/05 04:14:20;;;;;;;7.15;5.78;;;;;;;;;;5032005;28;20084;-70
2022/11/05 04:17:05;;;;;;;6.80;5.40;;;;;;;;;;5031815;28;20049;-69
2022/11/05 04:25:08;;;;;;;8.80;7.28;;;;;;;;;;5031635;28;20107;-69
2022/11/05 04:27:35;;;;;;;9.13;7.68;;;;;;;;;;5032000;28;20041;-69
2022/11/05 04:30:17;;;;;;;9.45;8.13;;;;;;;;;;5020600;28;20572;-69
2022/11/05 04:33:15;;;;;;;10.20;8.45;;;;;;;;;;5028922;28;20061;-69
2022/11/05 04:35:44;;;;;;;10.75;8.52;;;;;;;;;;5031653;28;20132;-69
2022/11/05 04:38:15;;;;;;;12.23;9.20;;;;;;;;;;5031281;28;20077;-69
2022/11/05 04:40:42;;;;;;;13.52;9.90;;;;;;;;;;5031827;28;20547;-69
2022/11/05 04:43:12;;;;;;;13.32;9.20;;;;;;;;;;5031824;28;20092;-70
2022/11/05 04:45:41;;;;;;;11.50;9.57;;;;;;;;;;5031294;28;20053;-70
2022/11/05 04:48:07;;;;;;;13.90;10.00;;;;;;;;;;5031063;28;20045;-71
2022/11/05 04:50:34;;;;;;;11.75;9.73;;;;;;;;;;5031911;28;20369;-69
2022/11/05 04:53:01;;;;;;;16.63;10.25;;;;;;;;;;5031851;28;20081;-69
2022/11/05 04:55:27;;;;;;;12.27;10.45;;;;;;;;;;5031522;28;20061;-69
2022/11/05 04:57:54;;;;;;;14.55;10.48;;;;;;;;;;5032098;28;20460;-69
2022/11/05 05:00:22;;;;;;;15.82;12.20;;;;;;;;;;5035462;28;20089;-69
2022/11/05 05:02:48;;;;;;;14.48;11.35;;;;;;;;;;5035180;28;20558;-69
2022/11/05 05:05:15;;;;;;;15.68;12.02;;;;;;;;;;5035294;28;20552;-69
2022/11/05 05:07:42;;;;;;;14.77;11.70;;;;;;;;;;5019414;28;20073;-68
2022/11/05 05:10:09;;;;;;;15.15;11.90;;;;;;;;;;5015191;28;20056;-69
2022/11/05 05:12:36;;;;;;;16.75;12.77;;;;;;;;;;5015543;28;20081;-69
2022/11/05 05:15:03;;;;;;;15.88;12.73;;;;;;;;;;5014328;28;20089;-69
2022/11/05 05:17:29;;;;;;;16.13;11.85;;;;;;;;;;5015721;28;20133;-70
2022/11/05 05:22:55;;;;;;;17.50;12.80;;;;;;;;;;5034371;28;20139;-70
2022/11/05 05:25:22;;;;;;;18.85;12.75;;;;;;;;;;5034869;28;20107;-70
2022/11/05 05:27:49;;;;;;;17.58;13.25;;;;;;;;;;5034383;28;20469;-69
2022/11/05 05:30:15;;;;;;;19.27;13.02;;;;;;;;;;5033722;28;20103;-71
2022/11/05 05:32:42;;;;;;;15.63;12.40;;;;;;;;;;5035105;28;20309;-69
2022/11/05 05:35:09;;;;;;;19.13;13.68;;;;;;;;;;5034991;28;20053;-69
2022/11/05 05:37:36;;;;;;;17.85;13.88;;;;;;;;;;5035116;28;20041;-70
2022/11/05 05:40:03;;;;;;;17.50;13.60;;;;;;;;;;5034238;28;20053;-70
2022/11/05 05:42:29;;;;;;;17.90;13.45;;;;;;;;;;5034682;28;20045;-70
2022/11/05 05:44:56;;;;;;;20.40;14.27;;;;;;;;;;5035085;28;20053;-70
2022/11/05 05:47:23;;;;;;;17.55;14.38;;;;;;;;;;5034739;28;20049;-69
2022/11/05 05:49:50;;;;;;;21.08;14.50;;;;;;;;;;5034255;28;20053;-69
2022/11/05 05:52:16;;;;;;;23.45;15.75;;;;;;;;;;5034594;28;20088;-69
2022/11/05 05:54:43;;;;;;;19.40;14.88;;;;;;;;;;5034530;28;20088;-69
2022/11/05 05:57:10;;;;;;;20.35;14.57;;;;;;;;;;5034550;28;20057;-69
2022/11/05 05:59:36;;;;;;;22.00;15.60;;;;;;;;;;5034131;28;20049;-70
2022/11/05 06:02:03;;;;;;;19.67;15.40;;;;;;;;;;5034159;28;20397;-69
2022/11/05 06:04:30;;;;;;;23.90;15.23;;;;;;;;;;5034719;28;20046;-69
2022/11/05 06:06:56;;;;;;;23.70;16.13;;;;;;;;;;5030028;28;20504;-70
2022/11/05 06:09:23;;;;;;;25.02;15.35;;;;;;;;;;5031431;28;20077;-69
2022/11/05 06:11:50;;;;;;;25.58;16.65;;;;;;;;;;5032424;28;20081;-69
2022/11/05 06:14:16;;;;;;;26.30;17.92;;;;;;;;;;5032129;28;20115;-69
2022/11/05 06:16:43;;;;;;;24.83;17.15;;;;;;;;;;5032410;28;20703;-70
2022/11/05 06:19:10;;;;;;;28.90;18.42;;;;;;;;;;5030955;28;20053;-70
2022/11/05 06:21:36;;;;;;;26.50;18.52;;;;;;;;;;5032471;28;20136;-70
2022/11/05 06:24:03;;;;;;;26.95;17.50;;;;;;;;;;5031658;28;20132;-70
2022/11/05 06:26:30;;;;;;;24.63;18.02;;;;;;;;;;5032151;28;20428;-70
2022/11/05 06:28:56;;;;;;;27.80;19.50;;;;;;;;;;5031735;28;20151;-70
2022/11/05 06:31:23;;;;;;;29.58;18.65;;;;;;;;;;5031145;28;20490;-70
2022/11/05 06:33:50;;;;;;;29.17;18.65;;;;;;;;;;5031916;28;20049;-70
2022/11/05 06:36:17;;;;;;;27.45;18.70;;;;;;;;;;5031724;28;20096;-69
2022/11/05 06:38:44;;;;;;;29.23;18.48;;;;;;;;;;5031226;28;20053;-70
2022/11/05 06:41:10;;;;;;;26.67;18.08;;;;;;;;;;5031854;28;20520;-70
2022/11/05 06:43:37;;;;;;;30.58;18.23;;;;;;;;;;5031066;28;20049;-70
2022/11/05 06:46:04;;;;;;;28.63;18.55;;;;;;;;;;5030856;28;20049;-70
2022/11/05 06:48:31;;;;;;;25.58;17.83;;;;;;;;;;5031109;28;20116;-70
2022/11/05 06:50:58;;;;;;;28.40;19.23;;;;;;;;;;5030179;28;20125;-70
2022/11/05 06:53:24;;;;;;;27.88;19.15;;;;;;;;;;5031991;28;20428;-69
2022/11/05 06:55:51;;;;;;;28.73;18.88;;;;;;;;;;5031601;28;20103;-70
2022/11/05 06:58:18;;;;;;;32.30;18.48;;;;;;;;;;5030924;28;20133;-70
2022/11/05 07:00:44;;;;;;;28.85;18.27;;;;;;;;;;5031347;28;20061;-69
2022/11/05 07:03:11;;;;;;;35.60;20.40;;;;;;;;;;5030856;28;20462;-70
2022/11/05 07:05:41;;;;;;;30.27;19.25;;;;;;;;;;5026989;28;20061;-70
2022/11/05 07:08:08;;;;;;;33.55;20.08;;;;;;;;;;5031148;28;20049;-72
2022/11/05 07:10:35;;;;;;;32.00;19.25;;;;;;;;;;5030666;28;20077;-69
2022/11/05 07:13:01;;;;;;;33.33;20.92;;;;;;;;;;5031009;28;20076;-71
2022/11/05 07:15:34;;;;;;;33.33;20.02;;;;;;;;;;5030931;28;20416;-71
2022/11/05 07:18:01;;;;;;;32.60;20.48;;;;;;;;;;5030444;28;20056;-71
2022/11/05 07:20:28;;;;;;;29.15;19.55;;;;;;;;;;5028766;28;20103;-71
2022/11/05 07:23:04;;;;;;;31.42;20.15;;;;;;;;;;5031025;28;20053;-71
2022/11/05 07:25:31;;;;;;;28.10;18.80;;;;;;;;;;5030514;28;20148;-71
2022/11/05 07:27:58;;;;;;;27.65;18.70;;;;;;;;;;5030536;28;20049;-70
2022/11/05 07:30:25;;;;;;;28.33;18.58;;;;;;;;;;5030748;28;20076;-71
2022/11/05 07:32:52;;;;;;;27.88;19.98;;;;;;;;;;5030587;28;20045;-71
2022/11/05 07:35:18;;;;;;;23.40;17.40;;;;;;;;;;5030711;28;20121;-71
2022/11/05 07:37:46;;;;;;;30.08;17.63;;;;;;;;;;5030279;28;20053;-70
2022/11/05 07:40:14;;;;;;;25.88;17.63;;;;;;;;;;5030579;28;20053;-70
2022/11/05 07:42:42;;;;;;;27.10;17.45;;;;;;;;;;5030322;28;20049;-70
2022/11/05 07:45:09;;;;;;;29.27;17.17;;;;;;;;;;5029259;28;20092;-71
2022/11/05 07:47:44;;;;;;;25.25;17.92;;;;;;;;;;5030978;28;20049;-69
2022/11/05 07:50:10;;;;;;;24.38;16.17;;;;;;;;;;5029704;28;20088;-70
2022/11/05 07:52:37;;;;;;;27.05;17.27;;;;;;;;;;5032112;28;20132;-71
2022/11/05 07:55:04;;;;;;;22.55;17.08;;;;;;;;;;5046322;28;20064;-69
2022/11/05 07:57:31;;;;;;;28.30;17.13;;;;;;;;;;5032606;28;20495;-72
2022/11/05 07:59:58;;;;;;;25.98;17.45;;;;;;;;;;5033135;28;20049;-74
2022/11/05 08:02:24;;;;;;;28.95;17.45;;;;;;;;;;5021504;28;20057;-71
2022/11/05 08:04:51;;;;;;;23.13;16.20;;;;;;;;;;5031432;28;20424;-75
2022/11/05 08:07:18;;;;;;;25.35;17.02;;;;;;;;;;5030701;28;20084;-75
2022/11/05 08:09:45;;;;;;;27.35;18.98;;;;;;;;;;5029037;28;20062;-73
2022/11/05 08:12:11;;;;;;;24.48;16.63;;;;;;;;;;5030794;28;20057;-72
2022/11/05 08:14:38;;;;;;;24.13;16.42;;;;;;;;;;5030199;28;20087;-73
2022/11/05 08:17:05;;;;;;;20.65;15.95;;;;;;;;;;5029427;28;20050;-68
2022/11/05 08:19:31;;;;;;;26.17;16.92;;;;;;;;;;5029866;28;20049;-68
2022/11/05 08:21:58;;;;;;;22.70;17.00;;;;;;;;;;5030554;28;20079;-69
2022/11/05 08:24:24;;;;;;;22.13;15.70;;;;;;;;;;5028662;28;20168;-73
2022/11/05 08:26:52;;;;;;;22.75;15.95;;;;;;;;;;5031927;28;20073;-72
2022/11/05 08:29:18;;;;;;;26.13;15.77;;;;;;;;;;5030665;28;20547;-72
2022/11/05 08:31:45;;;;;;;21.63;15.80;;;;;;;;;;5031712;28;20045;-72
2022/11/05 08:34:11;;;;;;;21.58;13.85;;;;;;;;;;5033798;28;20123;-70
2022/11/05 08:36:42;;;;;;;21.73;13.63;;;;;;;;;;5034894;28;20053;-73
2022/11/05 08:39:08;;;;;;;17.33;11.90;;;;;;;;;;5034579;28;20049;-71
2022/11/05 08:41:42;;;;;;;17.73;11.65;;;;;;;;;;5034861;28;20057;-71
2022/11/05 08:44:08;;;;;;;20.75;11.45;;;;;;;;;;5034700;28;20099;-76
2022/11/05 08:46:36;;;;;;;19.05;11.75;;;;;;;;;;5034991;28;20045;-72
2022/11/05 08:49:07;;;;;;;14.02;9.35;;;;;;;;;;5017624;28;20045;-73
2022/11/05 08:51:33;;;;;;;12.38;8.75;;;;;;;;;;5030001;28;20127;-72
2022/11/05 08:54:00;;;;;;;13.55;9.07;;;;;;;;;;5032249;28;20064;-75
2022/11/05 08:56:27;;;;;;;14.88;8.85;;;;;;;;;;5034216;28;20083;-72
2022/11/05 08:58:53;;;;;;;11.00;7.80;;;;;;;;;;5034706;28;20092;-71
2022/11/05 09:01:24;;;;;;;10.52;8.25;;;;;;;;;;5016582;28;20104;-76
2022/11/05 09:04:01;;;;;;;14.27;8.48;;;;;;;;;;4985294;28;20132;-73
2022/11/05 09:06:28;;;;;;;10.98;7.95;;;;;;;;;;5017042;28;20050;-74
2022/11/05 09:08:55;;;;;;;10.75;7.97;;;;;;;;;;5032826;28;20473;-71
2022/11/05 09:11:22;;;;;;;11.90;8.45;;;;;;;;;;5036907;28;20488;-75
2022/11/05 09:14:09;;;;;;;11.13;8.32;;;;;;;;;;5035123;28;20504;-74
2022/11/05 09:16:36;;;;;;;11.70;7.90;;;;;;;;;;5035996;28;20467;-72
2022/11/05 09:19:04;;;;;;;10.05;7.00;;;;;;;;;;5033562;28;20049;-75
2022/11/05 09:21:33;;;;;;;11.15;7.28;;;;;;;;;;5015407;28;20093;-74
2022/11/05 09:24:00;;;;;;;10.63;7.15;;;;;;;;;;5014112;28;20053;-75
2022/11/05 09:26:26;;;;;;;8.57;7.28;;;;;;;;;;5013219;28;20081;-74
2022/11/05 09:28:53;;;;;;;8.75;7.40;;;;;;;;;;5013287;28;20405;-73
2022/11/05 09:31:20;;;;;;;10.35;7.43;;;;;;;;;;5015973;28;20073;-72
2022/11/05 09:33:46;;;;;;;10.63;8.75;;;;;;;;;;5015594;28;20081;-72
2022/11/05 09:36:13;;;;;;;12.48;8.90;;;;;;;;;;5014098;28;20252;-72
2022/11/05 09:38:39;;;;;;;10.18;8.60;;;;;;;;;;5016504;28;20128;-75
2022/11/05 09:41:26;;;;;;;15.48;11.10;;;;;;;;;;5016551;28;20053;-71
2022/11/05 09:43:58;;;;;;;14.82;10.50;;;;;;;;;;5013387;28;20053;-71
2022/11/05 09:46:27;;;;;;;12.88;8.23;;;;;;;;;;5014022;28;20116;-72
2022/11/05 09:49:01;;;;;;;15.75;10.40;;;;;;;;;;5008101;28;20085;-72
2022/11/05 09:51:28;;;;;;;14.00;9.75;;;;;;;;;;5013595;28;20057;-72
2022/11/05 09:53:55;;;;;;;15.23;9.70;;;;;;;;;;5012158;28;20060;-72
2022/11/05 09:56:25;;;;;;;13.93;9.98;;;;;;;;;;5019773;28;20153;-75
2022/11/05 09:59:11;;;;;;;16.65;10.75;;;;;;;;;;5033444;28;20045;-71
2022/11/05 10:01:38;;;;;;;12.60;9.77;;;;;;;;;;5036241;28;20049;-74
2022/11/05 10:04:07;;;;;;;12.85;9.27;;;;;;;;;;5033449;28;20423;-73
2022/11/05 10:06:33;;;;;;;10.65;8.40;;;;;;;;;;5033409;28;20052;-75
2022/11/05 10:09:11;;;;;;;13.32;8.95;;;;;;;;;;5032298;28;20045;-72
2022/11/05 10:11:45;;;;;;;13.73;8.55;;;;;;;;;;5031896;28;20077;-73
2022/11/05 10:14:18;;;;;;;12.32;8.57;;;;;;;;;;5031706;28;20053;-74
2022/11/05 10:16:49;;;;;;;12.65;9.10;;;;;;;;;;5035126;28;20095;-72
2022/11/05 10:19:24;;;;;;;10.70;7.72;;;;;;;;;;5036449;28;20049;-69
2022/11/05 10:22:00;;;;;;;11.30;9.07;;;;;;;;;;5018819;28;20057;-73
2022/11/05 10:24:34;;;;;;;11.63;9.20;;;;;;;;;;5036258;28;20057;-72
2022/11/05 10:27:01;;;;;;;12.77;8.38;;;;;;;;;;5034866;28;20049;-69
2022/11/05 10:29:29;;;;;;;13.30;8.75;;;;;;;;;;5032652;28;20489;-70
2022/11/05 10:31:56;;;;;;;15.13;9.15;;;;;;;;;;5017454;28;20049;-71
2022/11/05 10:34:26;;;;;;;14.90;9.50;;;;;;;;;;5020868;28;20088;-73
2022/11/05 10:36:53;;;;;;;13.13;8.95;;;;;;;;;;5034108;28;20496;-71
2022/11/05 10:39:20;;;;;;;14.02;10.10;;;;;;;;;;5035049;28;20046;-72
2022/11/05 10:42:08;;;;;;;17.50;11.52;;;;;;;;;;5031543;28;20119;-69
2022/11/05 10:44:47;;;;;;;21.92;12.73;;;;;;;;;;5032335;28;20115;-75
2022/11/05 10:47:51;;;;;;;17.05;10.88;;;;;;;;;;5031645;28;20504;-71
2022/11/05 10:50:23;;;;;;;14.95;9.75;;;;;;;;;;5032913;28;20416;-74
2022/11/05 10:53:00;;;;;;;16.48;10.32;;;;;;;;;;5030761;28;20076;-73
2022/11/05 10:55:29;;;;;;;12.45;9.38;;;;;;;;;;5029776;28;20053;-71
2022/11/05 10:58:14;;;;;;;16.08;9.25;;;;;;;;;;5014202;28;20073;-75
2022/11/05 11:01:01;;;;;;;14.02;8.73;;;;;;;;;;5032118;28;20103;-73
2022/11/05 11:03:32;;;;;;;11.23;8.00;;;;;;;;;;5030252;28;20115;-72
2022/11/05 11:06:00;;;;;;;12.68;8.93;;;;;;;;;;5031665;28;20061;-74
2022/11/05 11:08:28;;;;;;;12.63;8.93;;;;;;;;;;5030035;28;20091;-76
2022/11/05 11:11:01;;;;;;;12.40;9.05;;;;;;;;;;5031795;28;20050;-73
2022/11/05 11:13:46;;;;;;;16.02;9.73;;;;;;;;;;5030181;28;20099;-70
2022/11/05 11:16:15;;;;;;;14.50;10.18;;;;;;;;;;5030265;28;20582;-71
2022/11/05 11:18:42;;;;;;;13.20;8.82;;;;;;;;;;5031077;28;20460;-69
2022/11/05 11:21:18;;;;;;;13.10;9.65;;;;;;;;;;5031196;28;20137;-73
2022/11/05 11:24:08;;;;;;;14.80;10.50;;;;;;;;;;5030307;28;20475;-75
2022/11/05 11:26:36;;;;;;;14.85;10.35;;;;;;;;;;5013948;28;20531;-69
2022/11/05 11:29:24;;;;;;;14.32;9.80;;;;;;;;;;5013141;28;20049;-72
2022/11/05 11:31:57;;;;;;;16.98;9.60;;;;;;;;;;5017282;28;20045;-71
2022/11/05 11:34:29;;;;;;;12.43;8.85;;;;;;;;;;5011386;28;20053;-71
2022/11/05 11:37:27;;;;;;;15.13;9.60;;;;;;;;;;5011460;28;20050;-72
2022/11/05 11:40:02;;;;;;;19.88;11.60;;;;;;;;;;5009987;28;20053;-73
2022/11/05 11:42:32;;;;;;;12.88;8.70;;;;;;;;;;5010166;28;20045;-76
2022/11/05 11:45:21;;;;;;;16.85;10.50;;;;;;;;;;5008983;28;20058;-72
2022/11/05 11:47:49;;;;;;;13.45;8.85;;;;;;;;;;4995890;28;20123;-72
2022/11/05 11:50:39;;;;;;;13.85;9.95;;;;;;;;;;5009649;28;20077;-72
2022/11/05 11:53:16;;;;;;;14.38;9.20;;;;;;;;;;5010021;28;20364;-71
2022/11/05 11:56:14;;;;;;;11.07;9.38;;;;;;;;;;5010328;28;20053;-72
2022/11/05 11:58:45;;;;;;;13.35;9.18;;;;;;;;;;5012539;28;20543;-72
2022/11/05 12:01:21;;;;;;;13.40;9.75;;;;;;;;;;5030705;28;20053;-69
2022/11/05 12:04:23;;;;;;;13.63;10.07;;;;;;;;;;5030803;28;20075;-71
2022/11/05 12:07:01;;;;;;;10.57;8.45;;;;;;;;;;5030272;28;20504;-69
2022/11/05 12:10:04;;;;;;;12.13;8.75;;;;;;;;;;5030395;28;20049;-70
2022/11/05 12:12:50;;;;;;;9.80;7.63;;;;;;;;;;5015081;28;20421;-70
2022/11/05 12:15:25;;;;;;;10.98;7.50;;;;;;;;;;5028325;28;20136;-73
2022/11/05 12:18:06;;;;;;;12.00;7.85;;;;;;;;;;5030433;28;20049;-70
2022/11/05 12:20:35;;;;;;;8.60;7.03;;;;;;;;;;5029307;28;20049;-72
2022/11/05 12:23:39;;;;;;;9.82;6.95;;;;;;;;;;5029421;28;20172;-70
2022/11/05 12:26:10;;;;;;;9.38;6.88;;;;;;;;;;5028484;28;20152;-71
2022/11/05 12:28:55;;;;;;;14.45;7.57;;;;;;;;;;5029576;28;20053;-72
2022/11/05 12:31:55;;;;;;;18.33;7.97;;;;;;;;;;5030155;28;20053;-72
2022/11/05 12:34:22;;;;;;;11.80;7.18;;;;;;;;;;5030289;28;20053;-72
2022/11/05 12:37:19;;;;;;;9.70;6.65;;;;;;;;;;5030542;28;20045;-73
2022/11/05 12:40:09;;;;;;;9.48;6.90;;;;;;;;;;5000846;28;20060;-72
2022/11/05 12:42:55;;;;;;;8.88;6.85;;;;;;;;;;5010552;28;20141;-71
2022/11/05 12:46:04;;;;;;;14.00;6.88;;;;;;;;;;5008633;28;20058;-72
2022/11/05 12:48:52;;;;;;;10.13;6.40;;;;;;;;;;4996200;28;20080;-72
2022/11/05 12:51:34;;;;;;;11.52;6.72;;;;;;;;;;5020118;28;20053;-72
2022/11/05 12:54:22;;;;;;;11.93;7.07;;;;;;;;;;5029344;28;20144;-74
2022/11/05 12:56:53;;;;;;;6.43;5.05;;;;;;;;;;5020130;28;20104;-72
2022/11/05 12:59:50;;;;;;;6.55;4.97;;;;;;;;;;4992992;28;20471;-74
2022/11/05 13:02:33;;;;;;;8.65;5.60;;;;;;;;;;5010284;28;20093;-73
2022/11/05 13:05:03;;;;;;;8.13;4.95;;;;;;;;;;5024701;28;20616;-73
2022/11/05 13:07:36;;;;;;;8.55;5.55;;;;;;;;;;5009063;28;20084;-70
2022/11/05 13:10:12;;;;;;;7.38;5.10;;;;;;;;;;5008268;28;20552;-70
2022/11/05 13:12:39;;;;;;;8.00;5.50;;;;;;;;;;5010611;28;20533;-75
2022/11/05 13:15:20;;;;;;;6.35;5.07;;;;;;;;;;5009424;28;20081;-70
2022/11/05 13:17:50;;;;;;;7.35;5.13;;;;;;;;;;5028417;28;20528;-70
2022/11/05 13:20:23;;;;;;;7.78;5.15;;;;;;;;;;5014964;28;20057;-70
2022/11/05 13:22:54;;;;;;;6.65;4.75;;;;;;;;;;5015862;28;20136;-71
2022/11/05 13:25:27;;;;;;;7.63;5.28;;;;;;;;;;5015942;28;20053;-70
2022/11/05 13:28:00;;;;;;;6.22;4.72;;;;;;;;;;5015637;28;20087;-69
2022/11/05 13:30:40;;;;;;;6.55;4.60;;;;;;;;;;5029035;28;20045;-74
2022/11/05 13:33:51;;;;;;;7.72;4.78;;;;;;;;;;4995763;28;20509;-76
2022/11/05 13:39:17;;;;;;;13.50;8.32;;;;;;;;;;4998639;28;20096;-73
2022/11/05 13:41:59;;;;;;;16.42;9.73;;;;;;;;;;5029682;28;20112;-77
2022/11/05 13:44:47;;;;;;;14.20;10.43;;;;;;;;;;5033491;28;20053;-76
2022/11/05 13:47:38;;;;;;;12.27;9.07;;;;;;;;;;5033237;28;20046;-77
2022/11/05 13:50:13;;;;;;;11.43;6.65;;;;;;;;;;5032840;28;20522;-77
2022/11/05 13:53:00;;;;;;;6.88;5.68;;;;;;;;;;5033609;28;20077;-70
2022/11/05 13:55:41;;;;;;;8.23;5.53;;;;;;;;;;5028706;28;20599;-69
2022/11/05 13:58:14;;;;;;;7.72;5.15;;;;;;;;;;5008643;28;20058;-69
2022/11/05 14:00:53;;;;;;;9.60;5.25;;;;;;;;;;5010814;28;20073;-68
2022/11/05 14:03:20;;;;;;;9.68;5.65;;;;;;;;;;5024775;28;20054;-69
2022/11/05 14:06:03;;;;;;;9.40;5.25;;;;;;;;;;5028878;28;20081;-69
2022/11/05 14:08:34;;;;;;;9.63;6.38;;;;;;;;;;5028246;28;20057;-70
2022/11/05 14:11:04;;;;;;;8.10;6.20;;;;;;;;;;5013676;28;20050;-71
2022/11/05 14:13:41;;;;;;;7.60;4.75;;;;;;;;;;5029709;28;20092;-71
2022/11/05 14:16:19;;;;;;;5.32;3.90;;;;;;;;;;5029991;28;20057;-74
2022/11/05 14:18:55;;;;;;;6.40;3.95;;;;;;;;;;5029138;28;20076;-74
2022/11/05 14:21:24;;;;;;;5.90;3.75;;;;;;;;;;5010254;28;20086;-76
2022/11/05 14:24:18;;;;;;;9.48;3.92;;;;;;;;;;5014617;28;20058;-73
2022/11/05 14:26:50;;;;;;;;;;;;;;;;;;5007907;28;20077;-71
2022/11/05 14:29:22;;;;;;;4.57;3.70;;;;;;;;;;5014787;28;20387;-71
2022/11/05 14:31:51;;;;;;;5.55;4.03;;;;;;;;;;5028712;28;20077;-72
2022/11/05 14:34:49;;;;;;;8.63;4.20;;;;;;;;;;5030905;28;20049;-70
2022/11/05 14:37:26;;;;;;;6.57;4.28;;;;;;;;;;5029374;28;20049;-70
2022/11/05 14:39:53;;;;;;;7.68;4.10;;;;;;;;;;5029118;28;20096;-70
2022/11/05 14:42:29;;;;;;;7.68;4.50;;;;;;;;;;5032081;28;20057;-72
2022/11/05 14:45:21;;;;;;;9.70;5.30;;;;;;;;;;5030026;28;20100;-71
2022/11/05 14:48:02;;;;;;;8.10;5.40;;;;;;;;;;5013004;28;20082;-71
2022/11/05 14:50:39;;;;;;;7.32;5.40;;;;;;;;;;5010874;28;20129;-71
2022/11/05 14:53:24;;;;;;;7.90;6.07;;;;;;;;;;4995527;28;20050;-76
2022/11/05 14:56:03;;;;;;;7.75;5.80;;;;;;;;;;5011069;28;20097;-74
2022/11/05 14:58:32;;;;;;;9.07;6.35;;;;;;;;;;4992874;28;20513;-73
2022/11/05 15:00:59;;;;;;;9.45;6.15;;;;;;;;;;5015935;28;20072;-75
2022/11/05 15:03:32;;;;;;;9.15;6.30;;;;;;;;;;5029301;28;20433;-75
2022/11/05 15:06:03;;;;;;;10.88;5.93;;;;;;;;;;5029300;28;20104;-76
2022/11/05 15:08:45;;;;;;;6.80;5.45;;;;;;;;;;5028320;28;20416;-76
2022/11/05 15:11:31;;;;;;;9.88;5.45;;;;;;;;;;5029869;28;20111;-70
2022/11/05 15:14:05;;;;;;;9.07;6.00;;;;;;;;;;5028392;28;20099;-70
2022/11/05 15:16:41;;;;;;;14.18;7.68;;;;;;;;;;5028898;28;20096;-72
2022/11/05 15:19:36;;;;;;;12.65;6.57;;;;;;;;;;5000504;28;20046;-71
2022/11/05 15:22:31;;;;;;;10.00;6.75;;;;;;;;;;5029425;28;20146;-74
2022/11/05 15:24:57;;;;;;;10.60;7.15;;;;;;;;;;5011416;28;20049;-70
2022/11/05 15:27:39;;;;;;;12.73;6.82;;;;;;;;;;5029061;28;20496;-72
2022/11/05 15:30:29;;;;;;;10.50;6.55;;;;;;;;;;5029063;28;20049;-72
2022/11/05 15:33:29;;;;;;;8.15;7.07;;;;;;;;;;5029811;28;20468;-73
2022/11/05 15:36:06;;;;;;;8.75;6.80;;;;;;;;;;5008443;28;20069;-71
2022/11/05 15:38:34;;;;;;;9.43;6.45;;;;;;;;;;5009829;28;20057;-70
2022/11/05 15:41:04;;;;;;;9.93;6.57;;;;;;;;;;5010603;28;20479;-74
2022/11/05 15:43:44;;;;;;;10.80;7.20;;;;;;;;;;4995939;28;20595;-71
2022/11/05 15:46:18;;;;;;;11.38;7.00;;;;;;;;;;5011353;28;20146;-74
2022/11/05 15:49:14;;;;;;;13.48;6.43;;;;;;;;;;5008781;28;20049;-73
2022/11/05 15:51:44;;;;;;;9.13;5.78;;;;;;;;;;4994539;28;20049;-75